Time;durP1;ratioP1;P1;durP2;ratioP2;P2;SDS_P1;SDS_P2;PMS_P1;PMS_P2;Temp;Humidity;BMP_temperature;BMP_pressure;BME280_temperature;BME280_humidity;BME280_pressure;Samples;Min_cycle;Max_cycle;Signal;HPM_P1;HPM_P2
2021/01/01 00:03:02;;;;;;;31.17;19.40;;;;;;;3.41;92.22;99223.75;5047602;28;20049;-94
2021/01/01 00:05:32;;;;;;;32.22;20.00;;;;;;;3.29;91.93;99203.28;5047397;28;20049;-94
2021/01/01 00:08:13;;;;;;;32.42;20.50;;;;;;;3.42;91.82;99216.78;5044778;28;20057;-89
2021/01/01 00:10:43;;;;;;;30.17;19.15;;;;;;;3.50;91.44;99230.41;5055331;28;20059;-95
2021/01/01 00:13:09;;;;;;;33.72;19.55;;;;;;;3.46;91.91;99234.91;5045809;28;20124;-92
2021/01/01 00:15:39;;;;;;;27.10;18.70;;;;;;;3.46;91.63;99240.13;5053827;28;20385;-94
2021/01/01 00:18:10;;;;;;;29.92;19.33;;;;;;;3.43;91.91;99237.66;5058806;28;20045;-95
2021/01/01 00:20:48;;;;;;;36.42;24.33;;;;;;;3.45;91.74;99237.59;5047519;28;20444;-92
2021/01/01 00:23:15;;;;;;;39.08;24.17;;;;;;;3.45;91.70;99243.69;5041977;28;20118;-91
2021/01/01 00:25:56;;;;;;;42.40;24.83;;;;;;;3.45;91.42;99248.91;5046489;28;20049;-93
2021/01/01 00:28:30;;;;;;;41.30;25.73;;;;;;;3.42;91.69;99256.88;5050225;28;20064;-88
2021/01/01 00:31:01;;;;;;;40.40;25.88;;;;;;;3.38;92.82;99239.56;5047704;28;20037;-91
2021/01/01 00:33:33;;;;;;;47.27;27.23;;;;;;;3.65;95.62;99242.94;5059995;28;20109;-92
2021/01/01 00:36:35;;;;;;;42.95;25.48;;;;;;;3.78;94.33;99248.56;5057536;28;20093;-92
2021/01/01 00:39:16;;;;;;;42.88;26.30;;;;;;;3.76;93.75;99248.66;5056135;28;20026;-90
2021/01/01 00:41:51;;;;;;;41.55;26.17;;;;;;;3.85;93.46;99250.03;5057250;28;20037;-90
2021/01/01 00:44:18;;;;;;;40.85;25.65;;;;;;;3.81;92.20;99246.69;5048533;28;20053;-88
2021/01/01 00:46:44;;;;;;;41.47;25.58;;;;;;;3.77;90.39;99252.97;5041972;28;20050;-88
2021/01/01 00:49:12;;;;;;;40.03;25.35;;;;;;;3.72;90.09;99254.91;5032877;28;20068;-89
2021/01/01 00:51:41;;;;;;;38.53;24.40;;;;;;;3.59;90.22;99239.72;5035305;28;20057;-90
2021/01/01 00:54:11;;;;;;;39.63;25.23;;;;;;;3.62;90.35;99245.66;5036498;28;20060;-88
2021/01/01 00:56:39;;;;;;;42.15;24.73;;;;;;;3.56;90.60;99248.53;5035366;28;20046;-88
2021/01/01 00:59:06;;;;;;;50.20;28.38;;;;;;;3.54;91.26;99252.94;5037921;28;20105;-87
2021/01/01 01:01:34;;;;;;;48.33;27.70;;;;;;;3.53;91.35;99246.00;5035587;28;20048;-87
2021/01/01 01:04:02;;;;;;;42.20;24.83;;;;;;;3.48;90.78;99247.94;5031226;28;20069;-89
2021/01/01 01:06:30;;;;;;;39.45;23.42;;;;;;;3.46;91.30;99252.41;5029523;28;20057;-86
2021/01/01 01:08:56;;;;;;;38.60;23.25;;;;;;;3.44;91.21;99252.44;5043512;28;20073;-90
2021/01/01 01:11:27;;;;;;;42.00;24.67;;;;;;;3.47;91.18;99262.78;5037293;28;20457;-87
2021/01/01 01:13:56;;;;;;;36.70;22.88;;;;;;;3.43;91.02;99252.50;5031489;28;20041;-89
2021/01/01 01:16:26;;;;;;;38.47;23.92;;;;;;;3.46;90.96;99260.25;5028421;28;20050;-87
2021/01/01 01:19:00;;;;;;;34.78;21.55;;;;;;;3.41;90.02;99259.56;5029972;28;20080;-88
2021/01/01 01:21:30;;;;;;;32.88;20.90;;;;;;;3.39;91.10;99267.44;5029493;28;20061;-89
2021/01/01 01:23:57;;;;;;;31.65;21.02;;;;;;;3.36;91.54;99266.69;5026820;28;20054;-87
2021/01/01 01:26:27;;;;;;;35.17;21.15;;;;;;;3.33;91.35;99259.81;5031248;28;20077;-87
2021/01/01 01:28:54;;;;;;;36.15;21.58;;;;;;;3.35;91.59;99272.84;5026966;28;20049;-87
2021/01/01 01:31:24;;;;;;;38.63;23.17;;;;;;;3.29;91.86;99263.47;5035405;28;20041;-87
2021/01/01 01:33:52;;;;;;;35.65;20.63;;;;;;;3.32;91.48;99268.56;5034059;28;20484;-87
2021/01/01 01:36:21;;;;;;;35.78;21.30;;;;;;;3.31;92.01;99274.69;5033379;28;20388;-86
2021/01/01 01:38:50;;;;;;;32.65;19.50;;;;;;;3.26;92.19;99275.78;5039839;28;20061;-87
2021/01/01 01:41:17;;;;;;;26.98;18.10;;;;;;;3.26;91.87;99289.72;5049743;28;20136;-87
2021/01/01 01:43:43;;;;;;;27.60;17.20;;;;;;;3.29;91.85;99286.16;5042302;28;20057;-87
2021/01/01 01:46:12;;;;;;;30.05;17.50;;;;;;;3.28;92.47;99281.81;5037110;28;20132;-85
2021/01/01 01:48:43;;;;;;;25.80;15.40;;;;;;;3.24;91.94;99285.44;5032726;28;20121;-91
2021/01/01 01:51:13;;;;;;;25.88;16.30;;;;;;;3.21;92.57;99283.78;5034659;28;20128;-88
2021/01/01 01:53:45;;;;;;;26.25;15.20;;;;;;;3.24;92.66;99293.31;5031683;28;20057;-90
2021/01/01 01:56:16;;;;;;;26.50;15.57;;;;;;;3.26;92.23;99281.88;5046918;28;20088;-92
2021/01/01 01:58:47;;;;;;;22.65;13.93;;;;;;;3.30;92.42;99290.47;5041614;28;20069;-89
2021/01/01 02:01:15;;;;;;;21.48;13.75;;;;;;;3.29;91.52;99280.94;5042075;28;20053;-90
2021/01/01 02:03:43;;;;;;;23.23;14.13;;;;;;;3.33;91.34;99285.97;5041991;28;20033;-89
2021/01/01 02:06:11;;;;;;;24.52;14.85;;;;;;;3.35;92.25;99292.00;5043903;28;20728;-88
2021/01/01 02:08:38;;;;;;;20.67;12.93;;;;;;;3.40;90.92;99297.09;5043923;28;20045;-87
2021/01/01 02:11:05;;;;;;;23.90;14.43;;;;;;;3.36;91.00;99292.88;5037736;28;20041;-90
2021/01/01 02:13:32;;;;;;;22.33;13.88;;;;;;;3.31;91.07;99292.16;5030920;28;20080;-88
2021/01/01 02:16:07;;;;;;;21.88;13.65;;;;;;;3.29;91.56;99288.78;5026341;28;20045;-85
2021/01/01 02:18:44;;;;;;;21.90;13.88;;;;;;;3.32;90.68;99294.72;5045482;28;20028;-89
2021/01/01 02:21:18;;;;;;;23.20;14.45;;;;;;;3.36;91.14;99296.34;5046086;28;21089;-88
2021/01/01 02:23:50;;;;;;;22.98;14.07;;;;;;;3.35;91.60;99299.84;5045044;28;20089;-89
2021/01/01 02:26:16;;;;;;;29.42;15.20;;;;;;;3.30;90.92;99296.56;5037908;28;20038;-90
2021/01/01 02:28:43;;;;;;;26.20;14.98;;;;;;;3.27;91.35;99301.06;5040224;28;20068;-88
2021/01/01 02:31:09;;;;;;;26.70;15.32;;;;;;;3.24;91.59;99298.53;5028663;28;20041;-88
2021/01/01 02:33:38;;;;;;;26.00;15.40;;;;;;;3.29;92.39;99304.47;5033259;28;20065;-86
2021/01/01 02:36:05;;;;;;;28.20;16.30;;;;;;;3.35;92.03;99310.31;5036073;28;20065;-87
2021/01/01 02:38:34;;;;;;;28.88;16.25;;;;;;;3.40;90.75;99310.19;5031947;28;20046;-88
2021/01/01 02:41:05;;;;;;;25.40;15.60;;;;;;;3.39;91.52;99317.16;5032100;28;20566;-88
2021/01/01 02:43:32;;;;;;;27.10;16.35;;;;;;;3.40;91.22;99307.56;5039766;28;20049;-86
2021/01/01 02:46:01;;;;;;;26.40;15.88;;;;;;;3.44;91.23;99311.78;5043746;28;20040;-87
2021/01/01 02:48:27;;;;;;;30.70;16.80;;;;;;;3.41;90.78;99310.13;5040720;28;20055;-91
2021/01/01 02:50:56;;;;;;;30.50;17.55;;;;;;;3.45;90.59;99310.88;5047927;28;20117;-87
2021/01/01 02:53:23;;;;;;;29.65;16.92;;;;;;;3.37;90.94;99300.66;5042478;28;20055;-90
2021/01/01 02:55:49;;;;;;;31.15;18.08;;;;;;;3.41;90.98;99309.28;5049051;28;20100;-90
2021/01/01 02:58:18;;;;;;;30.38;16.73;;;;;;;3.42;90.27;99314.44;5046559;28;20028;-92
2021/01/01 03:00:49;;;;;;;27.65;17.27;;;;;;;3.39;90.77;99316.31;5043889;28;20053;-90
2021/01/01 03:03:19;;;;;;;28.85;16.85;;;;;;;3.40;90.40;99312.78;5046112;28;20113;-90
2021/01/01 03:05:46;;;;;;;28.65;17.30;;;;;;;3.39;90.42;99318.94;5045606;28;20095;-89
2021/01/01 03:08:12;;;;;;;31.65;17.63;;;;;;;3.33;90.51;99314.75;5043154;28;20041;-89
2021/01/01 03:10:43;;;;;;;30.20;17.40;;;;;;;3.29;91.06;99328.03;5042235;28;20041;-85
2021/01/01 03:13:09;;;;;;;29.25;17.85;;;;;;;3.25;91.23;99322.03;5034302;28;20045;-85
2021/01/01 03:15:36;;;;;;;30.52;18.40;;;;;;;3.26;91.35;99330.72;5043840;28;20056;-86
2021/01/01 03:18:13;;;;;;;32.30;17.90;;;;;;;3.16;91.27;99328.41;5034019;28;20061;-86
2021/01/01 03:20:41;;;;;;;32.75;16.73;;;;;;;3.16;91.72;99327.56;5021911;28;20065;-88
2021/01/01 03:23:19;;;;;;;31.88;17.42;;;;;;;3.17;92.06;99326.66;5037025;28;20022;-89
2021/01/01 03:25:48;;;;;;;30.90;17.33;;;;;;;3.17;91.84;99326.66;5033018;28;20441;-90
2021/01/01 03:28:15;;;;;;;30.35;17.23;;;;;;;3.20;92.32;99330.94;5058017;28;20045;-89
2021/01/01 03:30:44;;;;;;;30.80;16.67;;;;;;;3.21;91.80;99327.41;5042482;28;20053;-90
2021/01/01 03:33:11;;;;;;;28.42;16.80;;;;;;;3.20;92.18;99337.03;5048005;28;20037;-90
2021/01/01 03:35:38;;;;;;;29.30;17.20;;;;;;;3.15;92.31;99324.09;5044160;28;20060;-88
2021/01/01 03:38:05;;;;;;;28.05;16.48;;;;;;;3.20;92.53;99338.78;5047685;28;20045;-91
2021/01/01 03:40:32;;;;;;;28.48;16.58;;;;;;;3.24;92.32;99337.78;5049721;28;20034;-88
2021/01/01 03:43:00;;;;;;;33.22;16.95;;;;;;;3.20;92.21;99330.94;5045842;28;20033;-91
2021/01/01 03:45:29;;;;;;;29.00;16.17;;;;;;;3.22;91.77;99327.34;5048850;28;20045;-91
2021/01/01 03:48:01;;;;;;;28.48;16.42;;;;;;;3.18;92.63;99331.84;5046639;28;20049;-91
2021/01/01 03:50:27;;;;;;;29.52;16.58;;;;;;;3.21;92.55;99338.72;5051733;28;20041;-92
2021/01/01 03:52:56;;;;;;;29.23;16.45;;;;;;;3.21;92.00;99333.50;5052411;28;20060;-92
2021/01/01 03:55:22;;;;;;;27.90;16.75;;;;;;;3.23;92.70;99336.06;5050326;28;20068;-92
2021/01/01 03:58:02;;;;;;;29.23;16.48;;;;;;;3.18;91.84;99333.59;5046539;28;20037;-90
2021/01/01 04:00:31;;;;;;;26.85;15.90;;;;;;;3.12;92.48;99329.44;5045924;28;20168;-91
2021/01/01 04:02:58;;;;;;;29.48;16.42;;;;;;;3.09;92.75;99337.38;5047533;28;20097;-90
2021/01/01 04:05:24;;;;;;;27.65;16.00;;;;;;;3.07;93.59;99338.34;5050667;28;20034;-90
2021/01/01 04:07:51;;;;;;;30.55;16.50;;;;;;;3.11;93.98;99342.56;5050050;28;20060;-92
2021/01/01 04:10:22;;;;;;;30.70;17.50;;;;;;;3.11;94.32;99329.50;5056056;28;20045;-88
2021/01/01 04:12:49;;;;;;;27.83;17.17;;;;;;;3.26;93.91;99341.19;5034262;28;20144;-92
2021/01/01 04:15:16;;;;;;;30.35;16.95;;;;;;;3.26;93.02;99343.81;5047228;28;20057;-91
2021/01/01 04:17:42;;;;;;;28.52;16.58;;;;;;;3.25;93.16;99347.34;5050785;28;20021;-91
2021/01/01 04:20:09;;;;;;;29.45;16.13;;;;;;;3.20;92.81;99344.00;5051032;28;20037;-92
2021/01/01 04:22:36;;;;;;;30.80;18.30;;;;;;;3.12;93.36;99344.28;5055569;28;20046;-91
2021/01/01 04:25:03;;;;;;;29.77;16.13;;;;;;;3.08;93.67;99345.28;5061075;28;20037;-89
2021/01/01 04:27:31;;;;;;;34.25;18.02;;;;;;;3.06;93.99;99341.88;5053490;28;20053;-91
2021/01/01 04:29:58;;;;;;;29.92;16.70;;;;;;;3.01;93.99;99336.78;5047918;28;20030;-90
2021/01/01 04:32:26;;;;;;;33.35;17.65;;;;;;;3.04;93.68;99349.75;5051976;28;20060;-92
2021/01/01 04:34:52;;;;;;;29.92;17.88;;;;;;;3.01;93.94;99349.84;5053741;28;20040;-92
2021/01/01 04:37:19;;;;;;;31.48;17.77;;;;;;;3.03;94.11;99349.81;5054422;28;20040;-88
2021/01/01 04:39:47;;;;;;;32.00;18.15;;;;;;;3.07;94.29;99352.28;5052697;28;20053;-89
2021/01/01 04:42:14;;;;;;;33.20;18.05;;;;;;;3.17;93.41;99356.28;5056931;28;20032;-89
2021/01/01 04:44:42;;;;;;;26.80;16.00;;;;;;;3.20;93.42;99354.47;5047686;28;20060;-89
2021/01/01 04:47:10;;;;;;;29.52;17.25;;;;;;;3.15;93.15;99347.63;5055341;28;20053;-91
2021/01/01 04:49:38;;;;;;;32.03;17.02;;;;;;;3.16;92.95;99351.94;5054583;28;20045;-91
2021/01/01 04:52:09;;;;;;;30.40;16.98;;;;;;;3.12;92.64;99342.53;5051712;28;20337;-92
2021/01/01 04:54:43;;;;;;;31.20;17.85;;;;;;;3.11;93.04;99353.91;5060330;28;20029;-90
2021/01/01 04:57:13;;;;;;;32.58;18.35;;;;;;;2.99;93.28;99351.66;5044624;28;20042;-91
2021/01/01 04:59:39;;;;;;;31.02;17.90;;;;;;;3.02;93.43;99359.41;5051237;28;20068;-88
2021/01/01 05:02:09;;;;;;;32.10;19.40;;;;;;;2.99;93.67;99353.44;5044572;28;20046;-90
2021/01/01 05:04:37;;;;;;;33.00;18.38;;;;;;;3.02;94.33;99363.78;5044005;28;20514;-90
2021/01/01 05:07:14;;;;;;;36.33;19.17;;;;;;;2.98;94.33;99355.22;5036835;28;20076;-90
2021/01/01 05:09:41;;;;;;;36.15;19.48;;;;;;;2.97;94.03;99370.94;5049656;28;20041;-90
2021/01/01 05:12:09;;;;;;;31.15;17.65;;;;;;;2.93;94.52;99364.94;5058357;28;20105;-89
2021/01/01 05:14:38;;;;;;;34.75;18.23;;;;;;;2.94;94.31;99371.91;5047421;28;20051;-89
2021/01/01 05:17:06;;;;;;;33.17;17.73;;;;;;;2.94;94.08;99361.44;5044604;28;20068;-89
2021/01/01 05:19:39;;;;;;;28.92;17.33;;;;;;;3.07;94.31;99370.59;5052018;28;20109;-88
2021/01/01 05:22:11;;;;;;;29.92;16.88;;;;;;;3.12;93.71;99373.06;5046510;28;20096;-90
2021/01/01 05:24:41;;;;;;;31.30;17.48;;;;;;;3.13;92.81;99374.78;5056009;28;20140;-87
2021/01/01 05:27:19;;;;;;;30.80;16.80;;;;;;;3.09;93.52;99367.91;5051278;28;20076;-90
2021/01/01 05:29:59;;;;;;;34.65;18.33;;;;;;;3.10;93.07;99375.72;5048474;28;20041;-90
2021/01/01 05:32:29;;;;;;;33.58;17.90;;;;;;;3.08;93.52;99364.44;5061842;28;20050;-89
2021/01/01 05:34:59;;;;;;;29.67;17.02;;;;;;;3.10;92.33;99372.25;5057037;28;20037;-90
2021/01/01 05:37:32;;;;;;;35.92;18.90;;;;;;;3.02;93.07;99374.25;5044827;28;20025;-91
2021/01/01 05:40:04;;;;;;;31.00;17.48;;;;;;;3.00;93.46;99370.81;5051917;28;20043;-90
2021/01/01 05:42:31;;;;;;;36.47;18.20;;;;;;;3.10;93.58;99380.94;5048367;28;20046;-91
2021/01/01 05:45:13;;;;;;;29.67;16.67;;;;;;;3.12;93.21;99392.22;5050717;28;20048;-92
2021/01/01 05:47:40;;;;;;;34.60;18.73;;;;;;;3.20;92.92;99393.72;5043763;28;20049;-89
2021/01/01 05:50:08;;;;;;;32.45;18.30;;;;;;;3.15;92.88;99384.25;5046717;28;20419;-87
2021/01/01 05:52:36;;;;;;;31.98;18.05;;;;;;;3.17;92.95;99398.13;5045565;28;20049;-92
2021/01/01 05:55:05;;;;;;;29.73;17.38;;;;;;;3.08;92.69;99401.06;5042712;28;20046;-88
2021/01/01 05:57:37;;;;;;;32.83;18.42;;;;;;;3.06;92.74;99394.16;5057155;28;20065;-94
2021/01/01 06:00:18;;;;;;;33.38;18.20;;;;;;;3.11;93.38;99402.72;5054482;28;20049;-91
2021/01/01 06:03:02;;;;;;;32.42;18.35;;;;;;;3.13;93.17;99401.78;5048106;28;20052;-91
2021/01/01 06:05:32;;;;;;;30.98;17.83;;;;;;;3.18;92.37;99407.69;5044845;28;20046;-90
2021/01/01 06:08:02;;;;;;;31.02;17.35;;;;;;;3.15;92.55;99407.78;5040526;28;20034;-91
2021/01/01 06:10:37;;;;;;;32.63;17.98;;;;;;;3.10;92.89;99414.97;5048666;28;20140;-91
2021/01/01 06:13:21;;;;;;;38.00;19.30;;;;;;;3.08;92.85;99414.16;5054050;28;20032;-89
2021/01/01 06:15:55;;;;;;;33.47;18.35;;;;;;;3.14;93.12;99424.44;5050009;28;20022;-90
2021/01/01 06:18:30;;;;;;;34.30;19.27;;;;;;;3.18;93.35;99426.00;5050171;28;20056;-89
2021/01/01 06:21:06;;;;;;;35.28;19.70;;;;;;;3.17;93.77;99415.59;5051329;28;20044;-94
2021/01/01 06:23:40;;;;;;;37.13;19.98;;;;;;;3.25;93.14;99423.22;5049993;28;20129;-92
2021/01/01 06:26:09;;;;;;;37.33;19.55;;;;;;;3.30;92.58;99427.41;5054258;28;20048;-91
2021/01/01 06:28:43;;;;;;;34.97;19.30;;;;;;;3.36;92.22;99434.16;5046512;28;20078;-88
2021/01/01 06:31:11;;;;;;;36.15;20.05;;;;;;;3.38;92.14;99434.97;5048239;28;20131;-90
2021/01/01 06:33:45;;;;;;;33.95;19.50;;;;;;;3.35;92.48;99450.78;5052019;28;20332;-88
2021/01/01 06:36:37;;;;;;;38.03;20.05;;;;;;;3.31;92.45;99449.16;5046666;28;20048;-90
2021/01/01 06:39:38;;;;;;;37.13;18.80;;;;;;;3.33;91.93;99453.44;5050624;28;20021;-88
2021/01/01 06:42:08;;;;;;;36.08;20.30;;;;;;;3.32;91.58;99454.34;5052097;28;20097;-87
2021/01/01 06:44:43;;;;;;;35.80;20.45;;;;;;;3.29;92.21;99461.47;5047396;28;20049;-90
2021/01/01 06:47:43;;;;;;;38.15;20.75;;;;;;;3.24;92.45;99465.97;5055254;28;20040;-92
2021/01/01 06:50:27;;;;;;;38.67;20.50;;;;;;;3.14;92.39;99468.03;5054311;28;20025;-90
2021/01/01 06:53:15;;;;;;;38.47;20.13;;;;;;;3.09;93.15;99475.16;5046892;28;20049;-88
2021/01/01 06:55:44;;;;;;;35.47;20.73;;;;;;;3.07;93.01;99472.59;5046434;28;20067;-89
2021/01/01 06:58:23;;;;;;;33.50;18.80;;;;;;;3.08;93.47;99474.31;5050576;28;20037;-88
2021/01/01 07:00:50;;;;;;;36.05;18.70;;;;;;;3.05;93.13;99474.41;5049374;28;20041;-90
2021/01/01 07:03:43;;;;;;;39.17;20.75;;;;;;;3.00;93.02;99481.50;5047929;28;20061;-91
2021/01/01 07:06:09;;;;;;;37.20;19.17;;;;;;;2.98;93.19;99478.13;5037992;28;20057;-87
2021/01/01 07:08:42;;;;;;;38.53;19.73;;;;;;;3.02;93.81;99497.16;5040602;28;20192;-90
2021/01/01 07:11:22;;;;;;;36.40;19.55;;;;;;;3.08;93.89;99490.00;5047963;28;20061;-85
2021/01/01 07:14:01;;;;;;;37.65;20.70;;;;;;;3.11;93.84;99494.28;5044015;28;20800;-89
2021/01/01 07:16:33;;;;;;;41.17;22.25;;;;;;;3.11;93.33;99479.44;5040338;28;20049;-86
2021/01/01 07:19:00;;;;;;;37.03;20.15;;;;;;;3.17;93.07;99487.09;5048000;28;20054;-89
2021/01/01 07:21:31;;;;;;;36.20;20.35;;;;;;;3.13;92.41;99482.00;5043311;28;20128;-86
2021/01/01 07:24:00;;;;;;;43.35;21.25;;;;;;;3.12;92.81;99501.22;5043180;28;20041;-88
2021/01/01 07:26:30;;;;;;;42.92;23.10;;;;;;;3.08;93.04;99503.06;5048930;28;20064;-90
2021/01/01 07:29:00;;;;;;;42.00;21.40;;;;;;;3.00;92.44;99502.44;5043594;28;20176;-89
2021/01/01 07:31:29;;;;;;;45.33;22.10;;;;;;;3.05;93.67;99511.00;5045880;28;20144;-90
2021/01/01 07:34:08;;;;;;;43.28;22.17;;;;;;;3.05;93.70;99510.16;5032914;28;20057;-88
2021/01/01 07:36:36;;;;;;;37.47;19.67;;;;;;;3.13;93.54;99516.88;5041845;28;20108;-87
2021/01/01 07:39:07;;;;;;;33.72;19.15;;;;;;;3.20;93.05;99514.06;5044417;28;20045;-88
2021/01/01 07:41:35;;;;;;;34.63;19.00;;;;;;;3.22;93.11;99507.03;5042796;28;20041;-89
2021/01/01 07:44:05;;;;;;;34.40;18.90;;;;;;;3.26;92.43;99519.97;5035323;28;20065;-88
2021/01/01 07:46:34;;;;;;;35.55;19.63;;;;;;;3.21;92.67;99516.63;5039013;28;20041;-88
2021/01/01 07:49:01;;;;;;;39.63;20.50;;;;;;;3.21;92.31;99521.84;5039375;28;20045;-89
2021/01/01 07:51:35;;;;;;;33.83;19.23;;;;;;;3.16;92.62;99535.06;5041209;28;20121;-89
2021/01/01 07:54:13;;;;;;;34.75;17.70;;;;;;;3.12;92.13;99528.25;5035979;28;20076;-88
2021/01/01 07:56:39;;;;;;;32.42;17.33;;;;;;;3.12;92.54;99532.63;5032090;28;20053;-88
2021/01/01 07:59:07;;;;;;;30.88;17.27;;;;;;;3.15;92.56;99537.72;5029009;28;20068;-91
2021/01/01 08:01:34;;;;;;;25.00;14.77;;;;;;;3.23;91.64;99538.38;5045104;28;20038;-91
2021/01/01 08:04:01;;;;;;;23.77;13.57;;;;;;;3.31;91.41;99543.34;5037009;28;20121;-93
2021/01/01 08:06:36;;;;;;;26.65;13.52;;;;;;;3.38;91.46;99545.75;5047031;28;20385;-91
2021/01/01 08:09:04;;;;;;;23.35;13.40;;;;;;;3.44;89.91;99545.56;5038843;28;20041;-90
2021/01/01 08:11:31;;;;;;;23.63;13.60;;;;;;;3.47;90.69;99547.19;5041417;28;20064;-90
2021/01/01 08:13:59;;;;;;;24.88;14.07;;;;;;;3.46;90.19;99540.28;5049997;28;20049;-91
2021/01/01 08:16:26;;;;;;;22.88;13.23;;;;;;;3.56;90.06;99549.53;5039738;28;20058;-90
2021/01/01 08:18:53;;;;;;;22.45;12.93;;;;;;;3.56;89.08;99546.94;5047097;28;20065;-91
2021/01/01 08:21:20;;;;;;;23.10;13.63;;;;;;;3.58;89.16;99547.75;5046503;28;20071;-92
2021/01/01 08:24:07;;;;;;;21.52;12.15;;;;;;;3.57;89.58;99547.78;5051390;28;20053;-92
2021/01/01 08:26:38;;;;;;;22.67;12.98;;;;;;;3.58;89.50;99552.13;5041667;28;20044;-91
2021/01/01 08:29:11;;;;;;;25.20;13.43;;;;;;;3.52;88.71;99553.16;5042720;28;20228;-90
2021/01/01 08:32:15;;;;;;;23.33;12.60;;;;;;;3.46;89.09;99556.00;5044323;28;20101;-90
2021/01/01 08:34:42;;;;;;;25.90;13.30;;;;;;;3.41;89.52;99547.41;5051612;28;20033;-89
2021/01/01 08:37:23;;;;;;;20.70;12.27;;;;;;;3.39;89.30;99551.84;5047528;28;20464;-91
2021/01/01 08:40:06;;;;;;;;;;;;;;;3.46;90.07;99556.00;5041677;28;20098;-92
2021/01/01 08:42:34;;;;;;;;;;;;;;;3.51;90.39;99562.78;5042048;28;19919;-94
2021/01/01 08:45:15;;;;;;;22.75;12.73;;;;;;;3.62;89.85;99559.81;5047682;28;19936;-93
2021/01/01 08:47:51;;;;;;;20.30;11.23;;;;;;;3.76;88.86;99572.47;5050307;28;20053;-93
2021/01/01 08:50:27;;;;;;;17.85;10.38;;;;;;;3.88;86.88;99572.94;5050703;28;20070;-93
2021/01/01 08:53:04;;;;;;;19.25;10.43;;;;;;;3.93;86.87;99579.78;5051452;28;20046;-93
2021/01/01 08:55:31;;;;;;;18.25;10.27;;;;;;;3.97;86.68;99578.75;5044280;28;20087;-91
2021/01/01 08:58:14;;;;;;;16.77;10.02;;;;;;;3.97;86.90;99586.63;5047811;28;20068;-93
2021/01/01 09:00:46;;;;;;;17.83;10.98;;;;;;;3.95;86.92;99573.56;5052043;28;20079;-91
2021/01/01 09:03:27;;;;;;;20.48;11.60;;;;;;;3.95;87.01;99586.66;5054318;28;20148;-93
2021/01/01 09:05:54;;;;;;;19.70;11.60;;;;;;;3.97;87.36;99589.22;5055579;28;20037;-91
2021/01/01 09:08:23;;;;;;;21.63;12.23;;;;;;;3.97;87.20;99581.38;5052539;28;20305;-91
2021/01/01 09:10:52;;;;;;;22.95;13.10;;;;;;;4.03;86.66;99589.91;5045978;28;20033;-92
2021/01/01 09:13:34;;;;;;;23.65;13.73;;;;;;;3.95;86.68;99586.66;5052748;28;20045;-90
2021/01/01 09:16:11;;;;;;;24.30;13.63;;;;;;;3.88;86.96;99590.41;5048128;28;20079;-92
2021/01/01 09:18:43;;;;;;;23.80;13.80;;;;;;;3.90;87.60;99595.59;5037169;28;20067;-93
2021/01/01 09:21:30;;;;;;;31.25;16.27;;;;;;;4.01;90.04;99596.94;5049126;28;20049;-90
2021/01/01 09:23:59;;;;;;;29.88;15.15;;;;;;;4.12;88.39;99605.28;5052147;28;20046;-92
2021/01/01 09:26:30;;;;;;;27.05;15.35;;;;;;;4.29;90.43;99602.13;5051976;28;20105;-93
2021/01/01 09:29:09;;;;;;;27.25;15.23;;;;;;;4.51;89.52;99607.47;5048639;28;20049;-91
2021/01/01 09:31:44;;;;;;;22.60;14.02;;;;;;;4.59;86.07;99602.81;5046357;28;20053;-90
2021/01/01 09:34:22;;;;;;;27.38;14.32;;;;;;;4.68;84.89;99613.00;5052648;28;20029;-90
2021/01/01 09:36:51;;;;;;;22.23;13.43;;;;;;;4.72;84.59;99616.38;5055030;28;20041;-91
2021/01/01 09:39:20;;;;;;;23.45;14.38;;;;;;;4.75;85.07;99624.97;5056172;28;20064;-91
2021/01/01 09:41:52;;;;;;;23.58;13.73;;;;;;;4.77;84.56;99617.91;5053992;28;20041;-89
2021/01/01 09:44:21;;;;;;;24.70;13.80;;;;;;;4.78;84.67;99611.75;5050125;28;20033;-92
2021/01/01 09:46:48;;;;;;;23.02;13.95;;;;;;;4.85;84.68;99618.50;5054676;28;20044;-93
2021/01/01 09:49:28;;;;;;;;;;;;;;;4.87;83.69;99631.56;5052971;28;20065;-90
2021/01/01 09:51:55;;;;;;;20.27;11.43;;;;;;;4.82;83.09;99628.25;5048808;28;19933;-93
2021/01/01 09:54:36;;;;;;;20.80;12.30;;;;;;;4.73;82.84;99629.41;5052979;28;20049;-92
2021/01/01 09:57:15;;;;;;;18.23;11.48;;;;;;;4.67;83.57;99624.41;5041553;28;20038;-92
2021/01/01 09:59:43;;;;;;;20.55;11.95;;;;;;;4.68;83.47;99627.88;5031565;28;20050;-92
2021/01/01 10:02:28;;;;;;;22.10;12.98;;;;;;;4.72;83.51;99629.50;5046599;28;20033;-94
2021/01/01 10:05:11;;;;;;;21.23;12.25;;;;;;;4.74;83.64;99628.50;5047028;28;20061;-92
2021/01/01 10:07:41;;;;;;;21.75;12.43;;;;;;;4.80;82.71;99635.31;5047184;28;20049;-92
2021/01/01 10:10:15;;;;;;;22.80;13.13;;;;;;;4.80;82.95;99640.53;5041987;28;20097;-92
2021/01/01 10:12:55;;;;;;;25.50;13.87;;;;;;;4.78;82.77;99642.38;5045373;28;20033;-93
2021/01/01 10:15:21;;;;;;;23.45;13.05;;;;;;;4.71;83.71;99643.50;5048064;28;20125;-92
2021/01/01 10:17:48;;;;;;;22.67;12.85;;;;;;;4.64;83.11;99639.38;5048359;28;20444;-93
2021/01/01 10:20:29;;;;;;;20.50;12.50;;;;;;;4.52;83.07;99638.03;5052282;28;20038;-91
2021/01/01 10:22:57;;;;;;;19.40;12.75;;;;;;;4.48;83.53;99652.16;5046071;28;20057;-92
2021/01/01 10:25:24;;;;;;;18.08;11.90;;;;;;;4.42;83.76;99650.59;5048309;28;20049;-91
2021/01/01 10:27:52;;;;;;;24.10;12.07;;;;;;;4.36;83.99;99642.94;5051129;28;20113;-92
2021/01/01 10:30:20;;;;;;;19.67;11.93;;;;;;;4.32;83.97;99650.94;5043939;28;20061;-92
2021/01/01 10:32:50;;;;;;;19.27;11.52;;;;;;;4.39;83.74;99647.22;5045458;28;20048;-93
2021/01/01 10:35:23;;;;;;;18.83;11.30;;;;;;;4.46;83.41;99652.19;5052298;28;20040;-92
2021/01/01 10:37:50;;;;;;;20.48;12.25;;;;;;;4.47;83.21;99647.81;5051268;28;20924;-91
2021/01/01 10:40:25;;;;;;;19.63;12.35;;;;;;;4.51;84.30;99641.56;5043304;28;20059;-91
2021/01/01 10:42:52;;;;;;;21.05;13.20;;;;;;;4.59;84.00;99645.63;5050275;28;20050;-90
2021/01/01 10:45:28;;;;;;;20.55;12.82;;;;;;;4.60;83.73;99649.09;5044116;28;20121;-88
2021/01/01 10:47:56;;;;;;;22.48;13.63;;;;;;;4.61;83.15;99648.19;5042177;28;20075;-92
2021/01/01 10:50:43;;;;;;;22.88;13.88;;;;;;;4.59;83.45;99652.63;5035016;28;20050;-90
2021/01/01 10:53:12;;;;;;;21.60;13.63;;;;;;;4.48;83.71;99625.94;5042073;28;20068;-90
2021/01/01 10:56:06;;;;;;;22.80;13.00;;;;;;;4.56;83.67;99647.53;5054411;28;20065;-91
2021/01/01 10:58:37;;;;;;;21.67;12.80;;;;;;;4.56;83.33;99640.47;5045154;28;20093;-90
2021/01/01 11:01:25;;;;;;;22.85;13.68;;;;;;;4.61;83.44;99637.72;5047498;28;20081;-91
2021/01/01 11:04:09;;;;;;;20.45;13.27;;;;;;;4.70;83.68;99639.16;5050767;28;20042;-91
2021/01/01 11:07:09;;;;;;;21.25;12.98;;;;;;;4.67;82.53;99637.50;5040169;28;20033;-90
2021/01/01 11:10:26;;;;;;;23.15;13.98;;;;;;;4.62;82.98;99634.19;5035364;28;20090;-89
2021/01/01 11:12:54;;;;;;;20.83;13.18;;;;;;;4.67;82.80;99644.50;5049685;28;20037;-91
2021/01/01 12:26:17;;;;;;;17.00;10.70;;;;;;;4.12;85.20;99639.34;4940936;28;20523;-92
2021/01/01 12:29:02;;;;;;;16.95;10.48;;;;;;;4.08;85.32;99632.53;5043139;28;20041;-91
2021/01/01 12:31:44;;;;;;;13.30;9.00;;;;;;;4.03;85.63;99638.81;5030759;28;20034;-90
2021/01/01 12:34:18;;;;;;;10.25;7.18;;;;;;;4.08;84.96;99639.53;5036617;28;20142;-90
2021/01/01 12:36:46;;;;;;;12.27;8.23;;;;;;;4.07;84.86;99636.06;5048430;28;20057;-91
2021/01/01 12:39:14;;;;;;;13.20;8.20;;;;;;;4.11;84.21;99639.41;5049471;28;20029;-89
2021/01/01 12:41:48;;;;;;;14.57;8.77;;;;;;;4.06;83.76;99644.81;5030855;28;20046;-86
2021/01/01 12:44:17;;;;;;;13.57;8.55;;;;;;;4.11;83.56;99647.25;5043987;28;20056;-85
2021/01/01 12:47:07;;;;;;;13.20;8.95;;;;;;;4.15;84.06;99646.25;5039240;28;20045;-89
2021/01/01 12:49:53;;;;;;;13.32;8.38;;;;;;;4.18;84.35;99643.56;5050305;28;20041;-87
2021/01/01 12:52:33;;;;;;;11.30;7.75;;;;;;;4.27;84.12;99643.22;5049654;28;20041;-87
2021/01/01 12:55:10;;;;;;;13.07;7.78;;;;;;;4.34;83.64;99638.66;5038153;28;20022;-87
2021/01/01 12:57:47;;;;;;;12.38;8.15;;;;;;;4.38;83.14;99641.13;5031909;28;20030;-89
2021/01/01 13:00:20;;;;;;;11.48;8.07;;;;;;;4.47;83.60;99650.44;5048881;28;20032;-87
2021/01/01 13:03:04;;;;;;;11.35;8.27;;;;;;;4.52;83.11;99648.53;5046241;28;20053;-90